Time;durP1;ratioP1;P1;durP2;ratioP2;P2;SDS_P1;SDS_P2;PMS_P1;PMS_P2;Temp;Humidity;BMP_temperature;BMP_pressure;BME280_temperature;BME280_humidity;BME280_pressure;Samples;Min_cycle;Max_cycle;Signal;HPM_P1;HPM_P2
2021/08/29 11:59:37;;;;;;;21.65;15.02;;;;;;;17.18;87.61;101577.88;5009752;27;120043;-89
2021/08/29 12:02:35;;;;;;;22.77;15.10;;;;;;;18.09;84.04;101579.00;4980476;28;121376;-91
2021/08/29 12:05:11;;;;;;;20.05;14.40;;;;;;;18.93;79.77;101589.31;4961187;28;123223;-89
2021/08/29 12:08:00;;;;;;;20.65;14.15;;;;;;;19.55;76.83;101593.56;4984051;28;122319;-90
2021/08/29 12:10:46;;;;;;;20.83;14.38;;;;;;;19.99;74.17;101586.88;4966604;28;122482;-89
2021/08/29 12:13:30;;;;;;;20.17;13.70;;;;;;;20.33;73.00;101581.53;4980816;28;122053;-90
2021/08/29 12:16:15;;;;;;;23.63;14.57;;;;;;;20.57;71.49;101587.53;4981276;28;121480;-90
2021/08/29 12:18:52;;;;;;;18.63;13.90;;;;;;;20.75;69.62;101583.59;4972384;28;122137;-89
2021/08/29 12:21:34;;;;;;;20.27;13.75;;;;;;;20.78;69.18;101572.19;4968913;28;125311;-89
2021/08/29 12:24:28;;;;;;;20.60;14.57;;;;;;;20.99;68.45;101583.19;4965231;28;122123;-91
2021/08/29 12:26:58;;;;;;;20.63;14.27;;;;;;;21.12;68.10;101595.41;4960507;28;123951;-90
2021/08/29 12:29:27;;;;;;;20.15;13.38;;;;;;;21.16;67.54;101600.75;4996353;27;124637;-89
2021/08/29 12:31:53;;;;;;;19.65;12.98;;;;;;;21.12;67.15;101584.25;4947586;28;123186;-89
2021/08/29 12:34:26;;;;;;;18.77;12.82;;;;;;;21.24;67.33;101590.66;4964994;28;124447;-90
2021/08/29 12:37:03;;;;;;;19.42;12.85;;;;;;;21.27;67.13;101586.84;4947763;28;124308;-89
2021/08/29 12:39:32;;;;;;;16.83;12.27;;;;;;;21.37;67.35;101595.78;4956237;28;122153;-89
2021/08/29 12:42:17;;;;;;;18.30;12.80;;;;;;;21.41;66.65;101605.41;4995943;27;125132;-89
2021/08/29 12:44:48;;;;;;;17.98;12.35;;;;;;;21.45;66.41;101589.19;4997485;28;123894;-90
2021/08/29 12:47:15;;;;;;;19.63;12.57;;;;;;;21.47;66.61;101580.31;4979922;28;121865;-90
2021/08/29 12:49:42;;;;;;;17.42;12.05;;;;;;;21.54;65.91;101598.59;4945768;28;124292;-90
2021/08/29 12:52:15;;;;;;;17.67;12.30;;;;;;;21.56;66.03;101585.66;4964120;28;122285;-89
2021/08/29 12:54:41;;;;;;;18.43;11.97;;;;;;;21.53;65.89;101574.72;4980246;28;121903;-89
2021/08/29 12:57:07;;;;;;;15.63;11.30;;;;;;;21.62;65.43;101596.81;4959939;28;124543;-89
2021/08/29 12:59:33;;;;;;;17.92;11.98;;;;;;;21.55;65.41;101588.97;4947240;28;122188;-89
2021/08/29 13:01:59;;;;;;;16.60;12.03;;;;;;;21.58;65.48;101587.94;4948067;28;124368;-89
2021/08/29 13:04:29;;;;;;;16.63;10.98;;;;;;;21.56;64.59;101582.88;4948907;28;124064;-89
2021/08/29 13:07:06;;;;;;;15.90;11.20;;;;;;;21.57;65.05;101589.22;4952031;28;122848;-88
2021/08/29 13:09:34;;;;;;;15.65;10.93;;;;;;;21.54;64.86;101579.81;4953401;28;125784;-88
2021/08/29 13:12:06;;;;;;;17.90;10.90;;;;;;;21.61;64.90;101596.06;4950492;28;121844;-90
2021/08/29 13:14:35;;;;;;;14.50;10.63;;;;;;;21.60;64.76;101597.34;4936523;28;124068;-90
2021/08/29 13:17:21;;;;;;;15.53;10.63;;;;;;;21.63;64.84;101587.19;4950248;28;124204;-90
2021/08/29 13:20:02;;;;;;;14.65;10.70;;;;;;;21.64;64.55;101599.88;4932294;28;121663;-89
2021/08/29 13:22:41;;;;;;;15.07;10.15;;;;;;;21.62;64.57;101594.03;4966145;28;122490;-89
2021/08/29 13:25:29;;;;;;;16.02;10.55;;;;;;;21.64;64.48;101580.31;4949723;28;125628;-88
2021/08/29 13:28:02;;;;;;;15.03;10.30;;;;;;;21.69;64.85;101571.19;4966673;28;122160;-91
2021/08/29 13:30:30;;;;;;;15.03;10.13;;;;;;;21.82;64.33;101579.84;4949289;28;123450;-89
2021/08/29 13:32:57;;;;;;;13.32;10.05;;;;;;;21.87;63.88;101573.47;4963340;28;122170;-90
2021/08/29 13:35:41;;;;;;;15.77;10.45;;;;;;;21.81;63.56;101561.56;4949378;28;124500;-89
2021/08/29 13:38:10;;;;;;;16.33;10.93;;;;;;;21.88;63.22;101580.59;4950710;28;124900;-89
2021/08/29 13:40:36;;;;;;;13.80;10.70;;;;;;;21.88;63.63;101585.41;4924709;28;121934;-89
2021/08/29 13:43:04;;;;;;;14.90;10.37;;;;;;;21.84;63.24;101582.88;4949387;28;124781;-86
2021/08/29 13:45:35;;;;;;;14.02;10.43;;;;;;;21.87;63.50;101589.47;4945151;28;124206;-89
2021/08/29 13:48:03;;;;;;;14.43;10.50;;;;;;;21.76;63.63;101576.25;4942408;28;122230;-90
2021/08/29 13:50:31;;;;;;;14.32;10.88;;;;;;;21.77;63.53;101586.19;4965520;28;124947;-89
2021/08/29 13:53:10;;;;;;;15.38;10.98;;;;;;;21.82;63.35;101601.41;4968766;28;124626;-90
2021/08/29 13:55:38;;;;;;;13.93;10.90;;;;;;;21.76;63.44;101584.63;4920886;28;123137;-89
2021/08/29 13:58:04;;;;;;;16.63;11.32;;;;;;;21.75;63.79;101577.53;4930478;28;124396;-91
2021/08/29 14:00:31;;;;;;;16.67;11.33;;;;;;;21.59;63.54;101559.50;4929474;28;121945;-90
2021/08/29 14:03:00;;;;;;;14.67;10.60;;;;;;;21.81;63.72;101581.09;4949275;28;123425;-90
2021/08/29 14:05:29;;;;;;;15.68;11.35;;;;;;;21.81;63.46;101583.13;4930023;28;125938;-89
2021/08/29 14:07:54;;;;;;;15.90;11.80;;;;;;;21.79;63.04;101580.84;4948498;28;122555;-90
2021/08/29 14:10:20;;;;;;;16.75;11.30;;;;;;;21.79;63.15;101583.66;4932501;28;123613;-90
2021/08/29 14:12:49;;;;;;;16.77;11.10;;;;;;;21.50;63.61;101531.06;4942009;28;125344;-90
2021/08/29 14:15:20;;;;;;;15.35;10.75;;;;;;;21.83;63.41;101575.78;4934465;28;122618;-90
2021/08/29 14:17:46;;;;;;;15.77;10.63;;;;;;;21.85;62.53;101578.81;4930391;28;124578;-91
2021/08/29 14:20:12;;;;;;;15.45;10.30;;;;;;;21.88;62.58;101579.84;4942796;28;122254;-90
2021/08/29 14:22:38;;;;;;;13.50;10.63;;;;;;;21.83;62.27;101572.22;4938646;28;123364;-91
2021/08/29 14:25:04;;;;;;;14.27;10.73;;;;;;;21.89;63.03;101565.34;4936872;28;124529;-91
2021/08/29 14:27:30;;;;;;;14.13;10.77;;;;;;;21.93;62.41;101584.66;4932433;28;121806;-90
2021/08/29 14:29:56;;;;;;;13.67;10.60;;;;;;;21.94;62.00;101581.34;4944941;28;123232;-92
2021/08/29 14:32:22;;;;;;;13.60;10.60;;;;;;;21.96;61.60;101576.00;4962512;28;126154;-91
2021/08/29 14:34:48;;;;;;;13.77;10.05;;;;;;;21.95;62.03;101584.91;4970333;28;121918;-90
2021/08/29 14:37:14;;;;;;;14.37;10.30;;;;;;;21.91;60.78;101590.00;4932778;28;126033;-89
2021/08/29 14:39:41;;;;;;;13.73;9.77;;;;;;;21.89;61.80;101576.53;4949037;28;122591;-91
2021/08/29 14:42:07;;;;;;;14.30;10.50;;;;;;;21.75;61.70;101549.59;4949506;28;123619;-89
2021/08/29 14:44:33;;;;;;;13.88;10.93;;;;;;;21.89;61.04;101568.16;4945230;28;124382;-90
2021/08/29 14:46:59;;;;;;;14.17;10.10;;;;;;;21.71;61.62;101546.31;4965310;28;122096;-89
2021/08/29 14:49:25;;;;;;;13.98;10.35;;;;;;;21.78;61.92;101542.28;4949270;28;121997;-90
2021/08/29 14:51:51;;;;;;;14.18;10.75;;;;;;;21.67;61.44;101520.69;4948833;28;122438;-90
2021/08/29 14:54:17;;;;;;;13.70;10.17;;;;;;;21.93;61.39;101559.50;4948772;28;122237;-89
2021/08/29 14:56:44;;;;;;;13.40;10.67;;;;;;;21.74;61.42;101539.72;4952674;28;122371;-89
2021/08/29 14:59:09;;;;;;;13.90;10.37;;;;;;;21.90;61.22;101566.88;4949440;28;122009;-89
2021/08/29 15:01:36;;;;;;;15.40;10.20;;;;;;;21.94;60.68;101572.22;4965125;28;122262;-90
2021/08/29 15:04:03;;;;;;;14.95;10.57;;;;;;;21.74;61.20;101543.25;4931855;28;124270;-92
2021/08/29 15:06:35;;;;;;;15.48;11.00;;;;;;;21.60;61.49;101526.78;4929729;28;121813;-89
2021/08/29 15:09:00;;;;;;;14.48;10.27;;;;;;;21.54;60.54;101526.78;4966065;28;122124;-91
2021/08/29 15:11:26;;;;;;;13.10;10.57;;;;;;;21.72;61.22;101550.63;4947281;28;124278;-89
2021/08/29 15:13:51;;;;;;;16.25;11.30;;;;;;;21.87;60.93;101579.06;4928061;28;122114;-92
2021/08/29 15:16:17;;;;;;;14.20;10.53;;;;;;;21.57;60.99;101534.13;4931536;28;123403;-90
2021/08/29 15:18:43;;;;;;;15.47;10.73;;;;;;;21.69;61.08;101551.66;4951677;28;125592;-90
2021/08/29 15:21:08;;;;;;;14.10;10.80;;;;;;;21.63;61.21;101548.09;4965860;28;122047;-87
2021/08/29 15:23:34;;;;;;;14.40;10.97;;;;;;;21.70;60.48;101555.97;4963649;28;122743;-89
2021/08/29 15:26:01;;;;;;;16.95;11.85;;;;;;;21.63;60.74;101550.88;4947093;28;122092;-89
2021/08/29 15:28:29;;;;;;;16.15;11.65;;;;;;;21.65;61.02;101551.91;4930917;28;124701;-87
2021/08/29 15:30:56;;;;;;;15.48;11.57;;;;;;;21.53;60.36;101535.63;4945707;28;125786;-92
2021/08/29 15:33:23;;;;;;;14.77;11.43;;;;;;;21.67;61.11;101549.38;4946554;28;121679;-89
2021/08/29 15:35:50;;;;;;;15.50;11.37;;;;;;;21.84;60.86;101562.56;4946929;28;123175;-91
2021/08/29 15:38:16;;;;;;;16.00;11.52;;;;;;;21.75;60.31;101553.16;4963150;28;122678;-90
2021/08/29 15:40:42;;;;;;;15.57;11.67;;;;;;;21.71;60.78;101535.16;4969285;28;122051;-90
2021/08/29 15:43:08;;;;;;;17.05;12.10;;;;;;;21.89;60.20;101553.44;4927782;28;124911;-91
2021/08/29 15:45:37;;;;;;;16.60;11.70;;;;;;;21.78;60.20;101540.25;4963307;28;122226;-89
2021/08/29 15:48:04;;;;;;;15.37;11.60;;;;;;;22.09;60.51;101571.97;4931265;28;124232;-91
2021/08/29 15:50:31;;;;;;;15.65;11.63;;;;;;;22.19;60.67;101584.41;4946308;28;122599;-90
2021/08/29 15:52:56;;;;;;;16.33;12.25;;;;;;;22.04;60.55;101560.31;4962980;28;122038;-90
2021/08/29 15:55:23;;;;;;;16.83;12.07;;;;;;;22.25;60.29;101596.34;4963911;28;122501;-90
2021/08/29 15:57:51;;;;;;;17.60;12.55;;;;;;;22.23;59.96;101584.91;4947132;28;122018;-89
2021/08/29 16:00:21;;;;;;;17.25;12.00;;;;;;;22.26;59.67;101592.28;4946204;28;122248;-91
2021/08/29 16:02:50;;;;;;;16.65;12.38;;;;;;;22.24;59.78;101589.22;4942993;28;124845;-91
2021/08/29 16:05:16;;;;;;;18.27;12.30;;;;;;;22.15;59.97;101583.91;4945859;28;122160;-92
2021/08/29 16:07:42;;;;;;;17.40;13.00;;;;;;;22.20;59.59;101588.72;4947947;28;125060;-91
2021/08/29 16:10:09;;;;;;;15.07;12.53;;;;;;;22.17;59.63;101586.94;4930065;28;125541;-90
2021/08/29 16:12:34;;;;;;;21.20;13.27;;;;;;;22.05;59.87;101575.03;4945167;28;121885;-91
2021/08/29 16:15:01;;;;;;;18.90;13.00;;;;;;;22.11;60.19;101591.78;4963656;28;122411;-89
2021/08/29 16:17:26;;;;;;;16.35;12.80;;;;;;;22.11;60.30;101597.38;4956342;28;122479;-90
2021/08/29 16:19:52;;;;;;;16.73;12.50;;;;;;;22.07;60.30;101602.47;4918119;28;122233;-90
2021/08/29 16:22:18;;;;;;;17.95;12.30;;;;;;;21.88;60.64;101586.19;4954342;28;123362;-89
2021/08/29 16:24:43;;;;;;;16.88;12.55;;;;;;;22.02;60.51;101607.53;4947298;28;122476;-87
2021/08/29 16:27:09;;;;;;;17.95;12.50;;;;;;;21.86;60.52;101582.38;4964322;28;122986;-89
2021/08/29 16:29:35;;;;;;;15.70;12.43;;;;;;;21.97;60.37;101613.84;4929645;28;125798;-90
2021/08/29 16:32:01;;;;;;;16.80;12.30;;;;;;;21.95;60.31;101619.19;4965045;28;121752;-90
2021/08/29 16:34:26;;;;;;;16.17;12.70;;;;;;;21.90;61.02;101608.78;4961780;28;123029;-89
2021/08/29 16:36:52;;;;;;;16.47;12.97;;;;;;;21.96;61.24;101608.78;4947469;28;122822;-90
2021/08/29 16:39:18;;;;;;;16.08;12.80;;;;;;;21.85;61.12;101589.22;4963655;28;122882;-90
2021/08/29 16:41:44;;;;;;;15.40;13.20;;;;;;;21.86;60.90;101590.75;4965289;28;122174;-86
2021/08/29 16:44:09;;;;;;;19.87;13.30;;;;;;;21.82;61.05;101581.88;4950659;28;124418;-90
2021/08/29 16:46:35;;;;;;;18.30;13.10;;;;;;;21.97;61.15;101610.28;4949430;28;123679;-89
2021/08/29 16:49:01;;;;;;;16.20;12.70;;;;;;;21.98;61.07;101609.78;4933236;28;124646;-90
2021/08/29 16:51:27;;;;;;;18.57;13.30;;;;;;;21.91;60.97;101599.13;4951485;28;122184;-90
2021/08/29 16:53:53;;;;;;;18.00;12.90;;;;;;;21.98;61.69;101611.81;4934473;28;124704;-89
2021/08/29 16:56:19;;;;;;;17.97;13.50;;;;;;;21.87;60.98;101593.03;4948767;28;124411;-88
2021/08/29 16:58:45;;;;;;;18.23;13.60;;;;;;;21.84;61.16;101579.31;4969360;28;121777;-89
2021/08/29 17:01:10;;;;;;;18.17;14.10;;;;;;;21.87;60.76;101597.84;4967985;28;123660;-91
2021/08/29 17:03:36;;;;;;;15.90;13.55;;;;;;;21.89;60.93;101596.09;4950314;28;125589;-89
2021/08/29 17:06:03;;;;;;;16.70;13.50;;;;;;;21.79;61.25;101580.09;4971222;28;121799;-91
2021/08/29 17:08:29;;;;;;;17.45;13.38;;;;;;;21.65;61.11;101567.88;4931995;28;125077;-90
2021/08/29 17:10:55;;;;;;;17.33;13.73;;;;;;;21.56;61.06;101541.00;4967388;28;121938;-91
2021/08/29 17:13:21;;;;;;;18.02;13.93;;;;;;;21.60;60.81;101555.47;4965972;28;124478;-90
2021/08/29 17:15:47;;;;;;;17.27;14.02;;;;;;;21.72;61.16;101575.75;4964416;28;125557;-91
2021/08/29 17:18:12;;;;;;;17.83;14.27;;;;;;;21.68;60.44;101572.47;4965926;28;122348;-89
2021/08/29 17:20:41;;;;;;;18.50;14.52;;;;;;;21.92;60.61;101620.19;4948768;28;123941;-90
2021/08/29 17:23:07;;;;;;;19.42;14.48;;;;;;;21.62;60.59;101566.88;4944740;28;124845;-89
2021/08/29 17:25:32;;;;;;;20.40;14.43;;;;;;;21.89;61.23;101620.47;4968515;28;122066;-90
2021/08/29 17:28:01;;;;;;;18.13;14.18;;;;;;;21.89;60.91;101614.88;4969081;28;122527;-90
2021/08/29 17:30:27;;;;;;;19.65;14.90;;;;;;;21.89;61.19;101612.84;4938695;28;122535;-91
2021/08/29 17:32:53;;;;;;;16.88;14.38;;;;;;;21.56;60.94;101565.34;4947261;28;123750;-93
2021/08/29 17:35:19;;;;;;;18.70;14.90;;;;;;;21.61;61.27;101570.19;4964338;28;122068;-90
2021/08/29 17:37:45;;;;;;;19.25;14.95;;;;;;;21.84;61.01;101612.84;4948976;28;121766;-90
2021/08/29 17:40:12;;;;;;;23.00;14.50;;;;;;;21.88;61.61;101618.94;4943420;28;124606;-90
2021/08/29 17:42:38;;;;;;;18.77;14.43;;;;;;;21.72;61.80;101606.47;4957161;28;125446;-90
2021/08/29 17:45:05;;;;;;;17.77;14.82;;;;;;;21.78;61.56;101610.06;4947389;28;121927;-90
2021/08/29 17:47:34;;;;;;;19.08;14.25;;;;;;;21.57;61.50;101583.63;4967078;28;121726;-91
2021/08/29 17:50:10;;;;;;;20.52;14.90;;;;;;;21.81;61.87;101623.00;4967203;28;124424;-89
2021/08/29 17:52:36;;;;;;;18.00;15.02;;;;;;;21.54;61.48;101584.66;4964698;28;122144;-92
2021/08/29 17:55:03;;;;;;;19.40;14.75;;;;;;;21.69;62.20;101602.66;4963866;28;122336;-91
2021/08/29 17:57:29;;;;;;;19.98;15.65;;;;;;;21.67;61.61;101601.66;4947348;28;121962;-90
2021/08/29 17:59:54;;;;;;;19.67;14.82;;;;;;;21.73;61.61;101611.56;4948777;28;122303;-90
2021/08/29 18:02:23;;;;;;;21.50;15.10;;;;;;;21.74;61.74;101615.88;4947596;28;121970;-91
2021/08/29 18:04:49;;;;;;;18.40;14.87;;;;;;;21.59;61.83;101595.81;4931378;28;122270;-90
2021/08/29 18:07:16;;;;;;;17.98;14.93;;;;;;;21.77;62.09;101628.06;4949009;28;122197;-89
2021/08/29 18:09:42;;;;;;;17.65;14.90;;;;;;;21.77;62.21;101622.50;4981273;28;126007;-90
2021/08/29 18:12:09;;;;;;;19.50;14.85;;;;;;;21.75;62.32;101636.94;4948541;28;121839;-91
2021/08/29 18:14:35;;;;;;;19.30;14.52;;;;;;;21.66;62.32;101609.25;4955218;28;124139;-89
2021/08/29 18:17:01;;;;;;;18.37;15.30;;;;;;;21.73;61.83;101622.72;4965380;28;122487;-90
2021/08/29 18:19:27;;;;;;;17.77;14.50;;;;;;;21.75;62.56;101633.38;4965268;28;122021;-90
2021/08/29 18:21:53;;;;;;;20.15;15.32;;;;;;;21.60;61.77;101611.28;4947961;28;125859;-91
2021/08/29 18:24:19;;;;;;;19.17;15.10;;;;;;;21.75;61.93;101633.38;4964849;28;122013;-90
2021/08/29 18:26:44;;;;;;;19.30;15.20;;;;;;;21.78;61.84;101632.41;4964863;28;121665;-91
2021/08/29 18:29:12;;;;;;;19.13;15.23;;;;;;;21.81;62.11;101636.97;4947627;28;126050;-91
2021/08/29 18:31:38;;;;;;;21.13;15.60;;;;;;;21.68;61.71;101623.47;4951505;28;122113;-90
2021/08/29 18:34:08;;;;;;;20.45;15.10;;;;;;;21.70;62.41;101625.75;4963811;28;124555;-91
2021/08/29 18:36:37;;;;;;;17.27;14.93;;;;;;;21.67;62.09;101610.03;4946839;28;122442;-90
2021/08/29 18:39:05;;;;;;;18.77;15.00;;;;;;;21.87;62.31;101642.53;4964770;28;122652;-90
2021/08/29 18:41:34;;;;;;;17.20;14.23;;;;;;;21.55;61.56;101605.72;4963867;28;124786;-92
2021/08/29 18:44:02;;;;;;;18.52;15.07;;;;;;;21.83;62.48;101648.38;4941123;28;122430;-92
2021/08/29 18:46:28;;;;;;;19.15;14.48;;;;;;;21.48;61.96;101603.38;4963091;28;122997;-92
2021/08/29 18:48:54;;;;;;;20.92;15.57;;;;;;;21.82;62.13;101646.88;4947289;28;126018;-90
2021/08/29 18:51:20;;;;;;;16.37;14.60;;;;;;;21.81;61.53;101647.38;4948095;28;122405;-92
2021/08/29 18:53:49;;;;;;;18.15;14.20;;;;;;;21.48;62.13;101598.56;4950015;28;124529;-90
2021/08/29 18:56:15;;;;;;;17.10;14.30;;;;;;;21.69;62.01;101624.25;4932257;28;121889;-90
2021/08/29 18:58:41;;;;;;;18.50;14.23;;;;;;;21.61;62.05;101626.00;4956652;28;123281;-91
2021/08/29 19:01:09;;;;;;;16.20;13.97;;;;;;;21.77;61.81;101647.63;4967148;28;122546;-90
2021/08/29 19:03:34;;;;;;;17.00;13.90;;;;;;;21.55;62.05;101620.44;4948451;28;121989;-90
2021/08/29 19:06:00;;;;;;;16.33;13.67;;;;;;;21.69;61.59;101643.78;4946912;28;123488;-91
2021/08/29 19:08:26;;;;;;;17.43;13.60;;;;;;;21.78;62.15;101654.72;4946353;28;123206;-90
2021/08/29 19:10:54;;;;;;;16.75;13.95;;;;;;;21.81;62.26;101656.50;4965903;28;122179;-92
2021/08/29 19:13:19;;;;;;;17.57;13.53;;;;;;;21.80;61.44;101654.22;4946053;28;124743;-90
2021/08/29 19:15:46;;;;;;;14.90;12.43;;;;;;;21.79;61.41;101656.25;4932988;28;125733;-91
2021/08/29 19:18:11;;;;;;;16.15;13.00;;;;;;;21.68;61.10;101656.97;4931871;28;124377;-90
2021/08/29 19:20:38;;;;;;;15.05;13.20;;;;;;;21.62;61.24;101647.06;4966368;28;124371;-91
2021/08/29 19:23:04;;;;;;;14.73;12.90;;;;;;;21.73;61.12;101661.06;4926225;28;122201;-92
2021/08/29 19:25:31;;;;;;;18.33;13.40;;;;;;;21.75;61.60;101661.31;4947011;28;123440;-89
2021/08/29 19:28:00;;;;;;;16.38;12.95;;;;;;;21.69;61.20;101657.75;4945354;28;126244;-91
2021/08/29 19:30:27;;;;;;;16.37;13.17;;;;;;;21.64;61.38;101645.31;4946402;28;121747;-93
2021/08/29 19:32:54;;;;;;;15.17;12.60;;;;;;;21.55;60.85;101633.63;4975393;28;124790;-90
2021/08/29 19:35:21;;;;;;;15.45;13.15;;;;;;;21.72;61.01;101656.72;4948142;28;124274;-90
2021/08/29 19:37:47;;;;;;;15.10;13.00;;;;;;;21.74;61.25;101657.00;4952418;28;121627;-91
2021/08/29 19:40:14;;;;;;;17.83;13.13;;;;;;;21.66;61.28;101655.97;4946690;28;124803;-90
2021/08/29 19:42:41;;;;;;;16.38;12.43;;;;;;;21.73;61.01;101659.03;4942460;28;122722;-90
2021/08/29 19:45:07;;;;;;;16.13;13.13;;;;;;;21.68;60.97;101656.22;4966175;28;122574;-89
2021/08/29 19:47:33;;;;;;;16.83;13.80;;;;;;;21.75;61.25;101667.66;4957826;28;123171;-91
2021/08/29 19:49:59;;;;;;;15.88;13.27;;;;;;;21.66;61.42;101642.00;4937635;28;121750;-92
2021/08/29 19:52:25;;;;;;;16.42;13.52;;;;;;;21.83;61.74;101662.34;4953109;28;122217;-90
2021/08/29 19:54:51;;;;;;;18.63;13.70;;;;;;;21.84;61.38;101663.13;4945267;28;123020;-92
2021/08/29 19:57:17;;;;;;;15.82;13.93;;;;;;;21.87;61.24;101660.06;4942697;28;122190;-92
2021/08/29 19:59:43;;;;;;;17.63;13.90;;;;;;;21.88;61.20;101656.00;4932674;28;123535;-91
2021/08/29 20:02:09;;;;;;;17.47;13.73;;;;;;;21.88;60.94;101650.41;4965772;28;122466;-91
2021/08/29 20:04:35;;;;;;;18.52;13.95;;;;;;;21.67;61.35;101621.19;4945955;28;123038;-90
2021/08/29 20:07:01;;;;;;;16.02;13.32;;;;;;;21.76;60.63;101641.25;4946166;28;122692;-92
2021/08/29 20:09:27;;;;;;;16.23;13.73;;;;;;;21.74;60.94;101620.69;4954623;28;122433;-92
2021/08/29 20:11:52;;;;;;;16.55;13.75;;;;;;;21.83;61.20;101645.59;4929525;28;124448;-91
2021/08/29 20:14:19;;;;;;;16.58;13.48;;;;;;;21.84;60.75;101652.72;4977551;28;123057;-92
2021/08/29 20:16:46;;;;;;;17.73;14.13;;;;;;;21.60;61.14;101625.25;4946397;28;122170;-91
2021/08/29 20:19:14;;;;;;;17.23;13.97;;;;;;;21.67;61.12;101626.78;4962631;28;122516;-92
2021/08/29 20:21:40;;;;;;;16.23;14.37;;;;;;;21.80;61.34;101649.41;4972225;28;124697;-91
2021/08/29 20:24:06;;;;;;;17.23;14.17;;;;;;;21.83;61.65;101662.34;4966014;28;123138;-91
2021/08/29 20:26:31;;;;;;;17.00;13.90;;;;;;;21.70;61.56;101648.09;4934217;28;124426;-91
2021/08/29 20:28:57;;;;;;;15.73;13.80;;;;;;;21.80;61.28;101649.41;4946893;28;122310;-91
2021/08/29 20:31:23;;;;;;;16.58;13.52;;;;;;;21.53;61.38;101613.78;4949411;28;122753;-89
2021/08/29 20:33:49;;;;;;;17.03;13.97;;;;;;;21.66;62.00;101628.81;4970331;28;122946;-92
2021/08/29 20:36:17;;;;;;;17.60;14.68;;;;;;;21.79;61.34;101647.88;4948368;28;121988;-91
2021/08/29 20:38:44;;;;;;;15.88;13.45;;;;;;;21.60;60.89;101622.47;4964816;28;121989;-91
2021/08/29 20:41:10;;;;;;;16.90;13.90;;;;;;;21.76;61.46;101640.50;4952489;28;124178;-89
2021/08/29 20:43:37;;;;;;;15.75;13.85;;;;;;;21.51;61.70;101608.72;4931789;28;124984;-93
2021/08/29 20:46:03;;;;;;;16.40;13.90;;;;;;;21.72;61.71;101639.97;4964303;28;123020;-92
2021/08/29 20:48:29;;;;;;;16.90;13.50;;;;;;;21.73;61.48;101647.09;4940974;28;121926;-93
2021/08/29 20:50:59;;;;;;;15.93;13.73;;;;;;;21.53;61.86;101614.59;4951829;28;123460;-91
2021/08/29 20:53:25;;;;;;;15.40;13.70;;;;;;;21.39;61.45;101596.78;4947830;28;125016;-92
2021/08/29 20:55:53;;;;;;;16.57;13.47;;;;;;;21.55;61.59;101606.47;4942531;28;121555;-92
2021/08/29 20:58:19;;;;;;;15.95;13.52;;;;;;;21.70;61.67;101636.94;4976467;28;124005;-91
2021/08/29 21:00:45;;;;;;;16.13;13.50;;;;;;;21.41;61.58;101594.25;4950326;28;124591;-92
2021/08/29 21:03:11;;;;;;;16.65;13.88;;;;;;;21.60;61.35;101632.88;4932238;28;122113;-89
2021/08/29 21:05:37;;;;;;;15.75;14.05;;;;;;;21.49;61.44;101621.66;4949351;28;126511;-89
2021/08/29 21:08:03;;;;;;;16.67;13.73;;;;;;;21.42;62.20;101615.31;4974876;28;121623;-92
2021/08/29 21:10:29;;;;;;;19.65;14.55;;;;;;;21.51;61.75;101635.88;4974053;28;123374;-93
2021/08/29 21:12:55;;;;;;;17.57;14.67;;;;;;;21.45;62.24;101624.69;4998834;28;125746;-92
2021/08/29 21:15:22;;;;;;;17.73;14.20;;;;;;;21.51;62.00;101633.84;4968083;28;122945;-89
2021/08/29 21:17:51;;;;;;;18.05;14.40;;;;;;;21.51;62.33;101639.44;4967877;28;122519;-90
2021/08/29 21:20:20;;;;;;;17.47;14.30;;;;;;;21.41;62.07;101633.31;4950966;28;124108;-89
2021/08/29 21:22:45;;;;;;;16.80;13.85;;;;;;;21.25;62.39;101608.91;4952475;28;122289;-90
2021/08/29 21:25:16;;;;;;;18.40;14.50;;;;;;;21.32;62.81;101616.81;4965271;28;124836;-89
2021/08/29 21:27:43;;;;;;;16.87;14.27;;;;;;;21.55;62.20;101661.53;4948249;28;122074;-89
2021/08/29 21:30:12;;;;;;;16.30;13.80;;;;;;;21.53;62.74;101655.66;4945670;28;123548;-89
2021/08/29 21:32:38;;;;;;;18.75;14.15;;;;;;;21.18;62.96;101597.44;4940665;28;125352;-91
2021/08/29 21:35:05;;;;;;;17.63;14.02;;;;;;;21.15;63.03;101602.00;4952445;28;122198;-91
2021/08/29 21:37:43;;;;;;;18.08;13.63;;;;;;;21.21;63.12;101611.16;4968541;28;122500;-92
2021/08/29 21:40:12;;;;;;;19.52;13.70;;;;;;;21.35;63.47;101631.78;4952273;28;124175;-90
2021/08/29 21:42:39;;;;;;;17.33;13.52;;;;;;;21.44;63.53;101654.63;4968829;28;122143;-90
2021/08/29 21:45:06;;;;;;;20.63;14.52;;;;;;;21.18;63.73;101606.59;4968730;28;122781;-91
2021/08/29 21:47:40;;;;;;;18.63;14.37;;;;;;;21.31;63.48;101626.44;4956372;28;124642;-91
2021/08/29 21:50:21;;;;;;;19.53;13.87;;;;;;;21.32;64.17;101630.78;4971574;28;123370;-91
2021/08/29 21:52:50;;;;;;;19.02;13.82;;;;;;;21.19;64.17;101610.13;4948527;28;125027;-91
2021/08/29 21:55:22;;;;;;;19.55;14.15;;;;;;;21.27;64.17;101625.91;4952907;28;121942;-90
2021/08/29 21:57:51;;;;;;;18.55;13.63;;;;;;;21.24;64.15;101618.56;4952144;28;124259;-89
2021/08/29 22:00:21;;;;;;;19.65;14.45;;;;;;;21.33;64.39;101631.53;4952196;28;124222;-90
2021/08/29 22:02:48;;;;;;;21.50;14.27;;;;;;;21.13;64.21;101601.75;4936318;28;121865;-90
2021/08/29 22:05:14;;;;;;;19.58;14.38;;;;;;;21.33;64.45;101623.16;4951143;28;123536;-90
2021/08/29 22:07:42;;;;;;;21.17;14.27;;;;;;;21.33;64.41;101635.09;4951869;28;124877;-89
2021/08/29 22:10:09;;;;;;;20.92;14.63;;;;;;;21.18;64.48;101603.03;4972871;28;122268;-90
2021/08/29 22:12:38;;;;;;;20.60;14.30;;;;;;;21.08;64.83;101592.09;4968755;28;122899;-90
2021/08/29 22:15:05;;;;;;;18.53;13.70;;;;;;;21.09;64.81;101607.56;4931411;28;122232;-90
2021/08/29 22:17:31;;;;;;;19.48;14.00;;;;;;;21.40;64.59;101648.53;4968894;28;123867;-91
2021/08/29 22:20:03;;;;;;;21.23;14.48;;;;;;;21.12;64.40;101612.16;4948306;28;123914;-90
2021/08/29 22:22:32;;;;;;;21.33;14.25;;;;;;;21.29;64.54;101636.56;4950615;28;122670;-91
2021/08/29 22:25:03;;;;;;;19.80;14.63;;;;;;;21.29;64.92;101636.56;4933536;28;123684;-90
2021/08/29 22:27:38;;;;;;;20.90;14.63;;;;;;;21.13;65.03;101624.84;4946046;28;124685;-91
2021/08/29 22:30:09;;;;;;;20.40;14.30;;;;;;;21.06;64.84;101591.84;4968267;28;122140;-90
2021/08/29 22:32:39;;;;;;;20.23;14.55;;;;;;;21.27;64.46;101634.28;4971216;28;122330;-88
2021/08/29 22:35:10;;;;;;;21.45;14.93;;;;;;;21.13;64.50;101613.69;4979285;28;122171;-88
2021/08/29 22:40:22;;;;;;;24.38;15.20;;;;;;;21.10;65.16;101611.13;4962431;28;123954;-90
2021/08/29 22:42:48;;;;;;;21.77;14.82;;;;;;;21.10;64.77;101617.47;4965927;28;121956;-90
2021/08/29 22:45:14;;;;;;;19.92;14.73;;;;;;;21.08;65.09;101616.44;4968111;28;122255;-90
2021/08/29 22:47:46;;;;;;;22.58;15.40;;;;;;;21.08;64.67;101619.25;4949921;28;124813;-92
2021/08/29 22:50:11;;;;;;;20.88;14.93;;;;;;;21.15;64.82;101627.88;4967785;28;122084;-90
2021/08/29 22:52:37;;;;;;;21.33;15.23;;;;;;;21.34;64.83;101656.16;4949451;28;124094;-91
2021/08/29 22:55:11;;;;;;;21.20;15.33;;;;;;;21.05;65.37;101609.06;4966596;28;122126;-90
2021/08/29 22:57:39;;;;;;;20.77;15.23;;;;;;;21.26;64.77;101643.91;4968207;28;121419;-91
2021/08/29 23:00:07;;;;;;;20.55;14.75;;;;;;;21.07;64.78;101609.34;4933836;28;124114;-88
2021/08/29 23:02:39;;;;;;;22.63;15.10;;;;;;;21.40;64.75;101656.91;4948715;28;123317;-92
2021/08/29 23:05:08;;;;;;;21.42;14.65;;;;;;;21.04;64.85;101605.50;4966763;28;123071;-90
2021/08/29 23:07:33;;;;;;;20.60;14.45;;;;;;;21.18;65.11;101625.34;4949189;28;123121;-90